AUR44D EGTE-EGJB
Flight info
| Callsign | AUR44D |
|---|---|
| Flight time | 0h 28m |
| Altitude | 11000 |
| Route | DAWLY N864 ABBEW N90 ENHEL N862 SKERY |
| Aircraft | AT76/M-SDFGIRY/S |
Departure
| Time | 2026-04-20 21:37 |
|---|---|
| Airport | Exeter International Airport (EGTE) |
Arrival
| Time | 2026-04-20 22:05 |
|---|---|
| Airport | Guernsey Airport (EGJB) |
| Time | Latitude | Longitude | Altitude | Speed | Heading |
|---|---|---|---|---|---|
| 2026-04-20 21:16 | 50.73175 | -3.41688 | 95 ft | 0 kts | 131° |
| 2026-04-20 21:29 | 50.73180 | -3.41697 | 96 ft | 4 kts | 135° |
| 2026-04-20 21:29 | 50.73200 | -3.41720 | 97 ft | 4 kts | 173° |
| 2026-04-20 21:30 | 50.73218 | -3.41712 | 95 ft | 2 kts | 240° |
| 2026-04-20 21:30 | 50.73219 | -3.41710 | 95 ft | 0 kts | 241° |
| 2026-04-20 21:32 | 50.73213 | -3.41728 | 97 ft | 4 kts | 241° |
| 2026-04-20 21:33 | 50.73191 | -3.41784 | 96 ft | 7 kts | 239° |
| 2026-04-20 21:33 | 50.73161 | -3.41865 | 97 ft | 9 kts | 238° |
| 2026-04-20 21:33 | 50.73127 | -3.41961 | 95 ft | 10 kts | 247° |
| 2026-04-20 21:33 | 50.73096 | -3.42069 | 96 ft | 11 kts | 242° |
| 2026-04-20 21:34 | 50.73059 | -3.42181 | 95 ft | 11 kts | 259° |
| 2026-04-20 21:34 | 50.73069 | -3.42306 | 95 ft | 12 kts | 274° |
| 2026-04-20 21:34 | 50.73070 | -3.42435 | 95 ft | 12 kts | 270° |
| 2026-04-20 21:34 | 50.73075 | -3.42565 | 99 ft | 12 kts | 278° |
| 2026-04-20 21:35 | 50.73094 | -3.42689 | 96 ft | 12 kts | 292° |
| 2026-04-20 21:35 | 50.73156 | -3.42765 | 96 ft | 11 kts | 338° |
| 2026-04-20 21:35 | 50.73217 | -3.42746 | 96 ft | 9 kts | 68° |
| 2026-04-20 21:35 | 50.73222 | -3.42714 | 97 ft | 0 kts | 77° |
| 2026-04-20 21:36 | 50.73222 | -3.42712 | 97 ft | 1 kts | 77° |
| 2026-04-20 21:36 | 50.73262 | -3.42459 | 99 ft | 58 kts | 76° |
| 2026-04-20 21:36 | 50.73413 | -3.41483 | 94 ft | 121 kts | 77° |
| 2026-04-20 21:37 | 50.73616 | -3.40186 | 629 ft | 120 kts | 76° |
| 2026-04-20 21:37 | 50.73824 | -3.38917 | 1281 ft | 119 kts | 76° |
| 2026-04-20 21:37 | 50.74049 | -3.37661 | 1784 ft | 124 kts | 79° |
| 2026-04-20 21:37 | 50.73769 | -3.36331 | 1889 ft | 149 kts | 137° |
| 2026-04-20 21:38 | 50.72699 | -3.35930 | 2059 ft | 171 kts | 176° |
| 2026-04-20 21:38 | 50.71498 | -3.35964 | 2489 ft | 173 kts | 175° |
| 2026-04-20 21:38 | 50.70289 | -3.36043 | 3003 ft | 174 kts | 177° |
| 2026-04-20 21:38 | 50.69067 | -3.36163 | 3450 ft | 177 kts | 176° |
| 2026-04-20 21:39 | 50.67833 | -3.36278 | 3920 ft | 178 kts | 176° |
| 2026-04-20 21:39 | 50.66594 | -3.36390 | 4406 ft | 179 kts | 176° |
| 2026-04-20 21:39 | 50.65363 | -3.36493 | 4897 ft | 180 kts | 176° |
| 2026-04-20 21:39 | 50.64102 | -3.36599 | 5345 ft | 182 kts | 176° |
| 2026-04-20 21:40 | 50.62832 | -3.36706 | 5779 ft | 184 kts | 177° |
| 2026-04-20 21:40 | 50.61533 | -3.36812 | 6231 ft | 186 kts | 178° |
| 2026-04-20 21:40 | 50.60238 | -3.36919 | 6692 ft | 187 kts | 179° |
| 2026-04-20 21:40 | 50.58953 | -3.37024 | 7095 ft | 188 kts | 180° |
| 2026-04-20 21:41 | 50.57642 | -3.37140 | 7488 ft | 189 kts | 181° |
| 2026-04-20 21:41 | 50.56323 | -3.37256 | 7872 ft | 191 kts | 181° |
| 2026-04-20 21:41 | 50.54993 | -3.37371 | 8250 ft | 192 kts | 181° |
| 2026-04-20 21:41 | 50.53654 | -3.37479 | 8639 ft | 193 kts | 182° |
| 2026-04-20 21:42 | 50.52310 | -3.37594 | 9023 ft | 195 kts | 183° |
| 2026-04-20 21:42 | 50.50953 | -3.37708 | 9411 ft | 196 kts | 184° |
| 2026-04-20 21:42 | 50.49587 | -3.37824 | 9781 ft | 197 kts | 185° |
| 2026-04-20 21:42 | 50.48211 | -3.37940 | 10148 ft | 198 kts | 185° |
| 2026-04-20 21:43 | 50.46831 | -3.38063 | 10503 ft | 198 kts | 185° |
| 2026-04-20 21:43 | 50.45450 | -3.38181 | 10830 ft | 199 kts | 185° |
| 2026-04-20 21:43 | 50.44050 | -3.38297 | 11067 ft | 206 kts | 185° |
| 2026-04-20 21:43 | 50.42578 | -3.38423 | 11160 ft | 218 kts | 185° |
| 2026-04-20 21:44 | 50.41024 | -3.38338 | 11208 ft | 230 kts | 173° |
| 2026-04-20 21:44 | 50.39410 | -3.37943 | 11229 ft | 240 kts | 172° |
| 2026-04-20 21:44 | 50.37728 | -3.37519 | 11240 ft | 249 kts | 171° |
| 2026-04-20 21:44 | 50.36011 | -3.36927 | 11241 ft | 256 kts | 166° |
| 2026-04-20 21:45 | 50.34297 | -3.36077 | 11237 ft | 261 kts | 162° |
| 2026-04-20 21:45 | 50.32586 | -3.35078 | 11238 ft | 264 kts | 161° |
| 2026-04-20 21:45 | 50.30860 | -3.34066 | 11245 ft | 267 kts | 161° |
| 2026-04-20 21:45 | 50.29112 | -3.33065 | 11242 ft | 268 kts | 161° |
| 2026-04-20 21:46 | 50.27348 | -3.32091 | 11238 ft | 269 kts | 161° |
| 2026-04-20 21:46 | 50.25577 | -3.31128 | 11241 ft | 270 kts | 162° |
| 2026-04-20 21:46 | 50.23797 | -3.30156 | 11239 ft | 271 kts | 162° |
| 2026-04-20 21:46 | 50.22013 | -3.29185 | 11237 ft | 272 kts | 162° |
| 2026-04-20 21:47 | 50.20246 | -3.28233 | 11239 ft | 272 kts | 162° |
| 2026-04-20 21:47 | 50.18459 | -3.27253 | 11238 ft | 272 kts | 162° |
| 2026-04-20 21:47 | 50.16664 | -3.26278 | 11239 ft | 273 kts | 162° |
| 2026-04-20 21:47 | 50.14868 | -3.25303 | 11237 ft | 274 kts | 162° |
| 2026-04-20 21:48 | 50.13069 | -3.24333 | 11235 ft | 274 kts | 162° |
| 2026-04-20 21:48 | 50.11266 | -3.23368 | 11239 ft | 273 kts | 162° |
| 2026-04-20 21:48 | 50.09468 | -3.22410 | 11235 ft | 273 kts | 162° |
| 2026-04-20 21:48 | 50.07671 | -3.21441 | 11234 ft | 273 kts | 162° |
| 2026-04-20 21:49 | 50.05870 | -3.20470 | 11230 ft | 274 kts | 162° |
| 2026-04-20 21:49 | 50.04068 | -3.19509 | 11236 ft | 274 kts | 162° |
| 2026-04-20 21:49 | 50.02267 | -3.18531 | 11240 ft | 274 kts | 163° |
| 2026-04-20 21:49 | 50.00455 | -3.17619 | 11232 ft | 274 kts | 164° |
| 2026-04-20 21:50 | 49.98836 | -3.16857 | 11233 ft | 274 kts | 164° |
| 2026-04-20 21:50 | 49.97064 | -3.16051 | 11175 ft | 258 kts | 165° |
| 2026-04-20 21:50 | 49.95362 | -3.15285 | 10918 ft | 252 kts | 165° |
| 2026-04-20 21:50 | 49.93690 | -3.14515 | 10609 ft | 250 kts | 165° |
| 2026-04-20 21:51 | 49.92032 | -3.13743 | 10323 ft | 248 kts | 165° |
| 2026-04-20 21:51 | 49.90388 | -3.12966 | 10013 ft | 246 kts | 164° |
| 2026-04-20 21:51 | 49.88757 | -3.12214 | 9719 ft | 243 kts | 165° |
| 2026-04-20 21:51 | 49.87141 | -3.11486 | 9423 ft | 241 kts | 165° |
| 2026-04-20 21:52 | 49.85535 | -3.10775 | 9131 ft | 239 kts | 165° |
| 2026-04-20 21:52 | 49.83963 | -3.10097 | 8847 ft | 237 kts | 165° |
| 2026-04-20 21:52 | 49.82373 | -3.09428 | 8558 ft | 236 kts | 165° |
| 2026-04-20 21:52 | 49.80788 | -3.08783 | 8266 ft | 235 kts | 165° |
| 2026-04-20 21:53 | 49.79209 | -3.08162 | 7993 ft | 234 kts | 165° |
| 2026-04-20 21:53 | 49.77634 | -3.07568 | 7713 ft | 233 kts | 165° |
| 2026-04-20 21:53 | 49.76063 | -3.06989 | 7442 ft | 231 kts | 165° |
| 2026-04-20 21:53 | 49.74499 | -3.06428 | 7166 ft | 230 kts | 165° |
| 2026-04-20 21:54 | 49.72943 | -3.05888 | 6921 ft | 228 kts | 165° |
| 2026-04-20 21:54 | 49.71405 | -3.05348 | 6673 ft | 226 kts | 166° |
| 2026-04-20 21:54 | 49.69873 | -3.04828 | 6422 ft | 225 kts | 164° |
| 2026-04-20 21:54 | 49.68342 | -3.04347 | 6165 ft | 224 kts | 164° |
| 2026-04-20 21:55 | 49.66810 | -3.03914 | 5900 ft | 223 kts | 166° |
| 2026-04-20 21:55 | 49.65290 | -3.03469 | 5631 ft | 222 kts | 165° |
| 2026-04-20 21:55 | 49.63774 | -3.03059 | 5375 ft | 221 kts | 165° |
| 2026-04-20 21:55 | 49.62264 | -3.02666 | 5121 ft | 220 kts | 165° |
| 2026-04-20 21:56 | 49.60757 | -3.02300 | 4863 ft | 218 kts | 165° |
| 2026-04-20 21:56 | 49.59410 | -3.01494 | 4607 ft | 203 kts | 142° |
| 2026-04-20 21:56 | 49.58217 | -3.00330 | 4347 ft | 203 kts | 141° |
| 2026-04-20 21:56 | 49.57165 | -2.99285 | 4109 ft | 203 kts | 141° |
| 2026-04-20 21:57 | 49.55985 | -2.98091 | 3885 ft | 202 kts | 141° |
| 2026-04-20 21:57 | 49.54820 | -2.96905 | 3671 ft | 199 kts | 140° |
| 2026-04-20 21:57 | 49.53670 | -2.95733 | 3498 ft | 197 kts | 140° |
| 2026-04-20 21:57 | 49.52533 | -2.94579 | 3312 ft | 195 kts | 140° |
| 2026-04-20 21:58 | 49.51408 | -2.93437 | 3136 ft | 193 kts | 140° |
| 2026-04-20 21:58 | 49.50290 | -2.92300 | 2952 ft | 192 kts | 140° |
| 2026-04-20 21:58 | 49.49193 | -2.91181 | 2778 ft | 191 kts | 140° |
| 2026-04-20 21:58 | 49.48087 | -2.90048 | 2593 ft | 190 kts | 140° |
| 2026-04-20 21:59 | 49.46991 | -2.88922 | 2423 ft | 189 kts | 140° |
| 2026-04-20 21:59 | 49.45908 | -2.87811 | 2298 ft | 184 kts | 139° |
| 2026-04-20 21:59 | 49.45066 | -2.86432 | 2172 ft | 174 kts | 122° |
| 2026-04-20 21:59 | 49.44344 | -2.84942 | 2077 ft | 173 kts | 121° |
| 2026-04-20 22:00 | 49.43649 | -2.83468 | 2036 ft | 169 kts | 121° |
| 2026-04-20 22:00 | 49.43158 | -2.81934 | 2022 ft | 155 kts | 94° |
| 2026-04-20 22:00 | 49.43116 | -2.80352 | 2014 ft | 144 kts | 92° |
| 2026-04-20 22:00 | 49.43057 | -2.78868 | 1999 ft | 134 kts | 92° |
| 2026-04-20 22:01 | 49.43012 | -2.77508 | 1984 ft | 121 kts | 91° |
| 2026-04-20 22:01 | 49.43022 | -2.76302 | 1976 ft | 104 kts | 88° |
| 2026-04-20 22:01 | 49.43064 | -2.75286 | 1992 ft | 93 kts | 87° |
| 2026-04-20 22:01 | 49.43108 | -2.74275 | 1996 ft | 96 kts | 88° |
| 2026-04-20 22:02 | 49.43133 | -2.73336 | 1899 ft | 85 kts | 88° |
| 2026-04-20 22:02 | 49.43159 | -2.72386 | 1777 ft | 92 kts | 88° |
| 2026-04-20 22:02 | 49.43181 | -2.71411 | 1654 ft | 90 kts | 88° |
| 2026-04-20 22:02 | 49.43206 | -2.70430 | 1539 ft | 94 kts | 87° |
| 2026-04-20 22:03 | 49.43239 | -2.69419 | 1410 ft | 95 kts | 87° |
| 2026-04-20 22:03 | 49.43271 | -2.68423 | 1279 ft | 93 kts | 87° |
| 2026-04-20 22:03 | 49.43296 | -2.67421 | 1151 ft | 96 kts | 88° |
| 2026-04-20 22:03 | 49.43322 | -2.66390 | 1025 ft | 94 kts | 86° |
| 2026-04-20 22:04 | 49.43353 | -2.65385 | 867 ft | 96 kts | 86° |
| 2026-04-20 22:04 | 49.43389 | -2.64327 | 746 ft | 101 kts | 86° |
| 2026-04-20 22:04 | 49.43416 | -2.63291 | 630 ft | 93 kts | 85° |
| 2026-04-20 22:04 | 49.43437 | -2.62293 | 480 ft | 96 kts | 87° |
| 2026-04-20 22:05 | 49.43467 | -2.61256 | 336 ft | 95 kts | 86° |
| 2026-04-20 22:05 | 49.43491 | -2.60393 | 308 ft | 64 kts | 87° |
| 2026-04-20 22:05 | 49.43502 | -2.60011 | 314 ft | 22 kts | 87° |
| 2026-04-20 22:05 | 49.43488 | -2.59875 | 318 ft | 9 kts | 141° |
| 2026-04-20 22:06 | 49.43414 | -2.59860 | 322 ft | 13 kts | 178° |
| 2026-04-20 22:06 | 49.43348 | -2.59825 | 322 ft | 5 kts | 105° |
| 2026-04-20 22:06 | 49.43347 | -2.59786 | 324 ft | 5 kts | 83° |
| 2026-04-20 22:06 | 49.43339 | -2.59751 | 324 ft | 3 kts | 148° |
| 2026-04-20 22:07 | 49.43308 | -2.59746 | 324 ft | 6 kts | 178° |
| 2026-04-20 22:07 | 49.43285 | -2.59744 | 324 ft | 2 kts | 178° |
| 2026-04-20 22:07 | 49.43284 | -2.59744 | 324 ft | 0 kts | 178° |